Time;durP1;ratioP1;P1;durP2;ratioP2;P2;SDS_P1;SDS_P2;PMS_P1;PMS_P2;Temp;Humidity;BMP_temperature;BMP_pressure;BME280_temperature;BME280_humidity;BME280_pressure;Samples;Min_cycle;Max_cycle;Signal;HPM_P1;HPM_P2
2022/08/16 00:02:06;;;;;;;21.20;19.25;;;21.00;99.90;;;;;;4922549;29;20070;-57
2022/08/16 00:04:33;;;;;;;21.95;19.65;;;21.00;99.90;;;;;;4929515;29;20051;-58
2022/08/16 00:06:59;;;;;;;24.00;21.83;;;21.00;99.90;;;;;;4941824;28;20133;-57
2022/08/16 00:09:25;;;;;;;24.73;22.33;;;21.00;99.90;;;;;;4943485;28;20063;-58
2022/08/16 00:11:51;;;;;;;22.20;20.10;;;21.00;99.90;;;;;;4944223;29;20141;-57
2022/08/16 00:14:22;;;;;;;23.10;20.98;;;21.00;99.90;;;;;;4944788;28;20047;-57
2022/08/16 00:16:48;;;;;;;22.77;20.88;;;20.90;99.90;;;;;;4924465;29;20055;-58
2022/08/16 00:19:17;;;;;;;24.00;21.83;;;20.90;99.90;;;;;;4927795;28;20722;-57
2022/08/16 00:21:43;;;;;;;24.63;22.63;;;20.90;99.90;;;;;;4925799;29;20058;-57
2022/08/16 00:24:10;;;;;;;26.08;23.60;;;20.90;99.90;;;;;;4925872;28;20094;-57
2022/08/16 00:26:37;;;;;;;25.13;22.80;;;20.90;99.90;;;;;;4939191;29;20106;-57
2022/08/16 00:29:03;;;;;;;26.65;24.52;;;20.90;99.90;;;;;;4935500;29;20079;-59
2022/08/16 00:31:32;;;;;;;27.00;24.35;;;20.80;99.90;;;;;;4926061;29;20059;-58
2022/08/16 00:34:00;;;;;;;27.05;24.42;;;20.80;99.90;;;;;;4925997;29;20048;-57
2022/08/16 00:36:26;;;;;;;27.70;25.30;;;20.80;99.90;;;;;;4931516;29;20193;-56
2022/08/16 00:38:52;;;;;;;28.80;26.27;;;20.80;99.90;;;;;;4928723;28;20517;-58
2022/08/16 00:41:19;;;;;;;29.33;26.55;;;20.80;99.90;;;;;;4925437;29;20134;-57
2022/08/16 00:43:45;;;;;;;29.02;26.50;;;20.70;99.90;;;;;;4925415;29;20055;-57
2022/08/16 00:46:28;;;;;;;29.90;27.33;;;20.70;99.90;;;;;;4923790;29;20134;-57
2022/08/16 00:48:56;;;;;;;29.35;26.90;;;20.70;99.90;;;;;;4925679;29;20110;-57
2022/08/16 00:51:24;;;;;;;29.25;26.60;;;20.70;99.90;;;;;;4925448;29;20051;-58
2022/08/16 00:53:52;;;;;;;30.58;27.75;;;20.70;99.90;;;;;;4928215;28;20050;-56
2022/08/16 00:56:23;;;;;;;30.17;27.52;;;20.70;99.90;;;;;;4933190;28;20793;-56
2022/08/16 00:58:51;;;;;;;30.50;27.90;;;20.70;99.90;;;;;;4938798;29;20083;-57
2022/08/16 01:01:18;;;;;;;30.83;28.13;;;20.70;99.90;;;;;;4942913;29;20086;-57
2022/08/16 01:03:50;;;;;;;31.33;28.52;;;20.70;99.90;;;;;;4944618;28;20391;-56
2022/08/16 01:06:18;;;;;;;32.55;29.35;;;20.70;99.90;;;;;;4942521;29;20066;-57
2022/08/16 01:08:45;;;;;;;31.83;29.00;;;20.80;99.90;;;;;;4935429;28;20056;-56
2022/08/16 01:11:12;;;;;;;32.70;29.92;;;20.70;99.90;;;;;;4925958;29;20054;-57
2022/08/16 01:13:39;;;;;;;31.88;29.00;;;20.70;99.90;;;;;;4936890;28;20052;-57
2022/08/16 01:16:18;;;;;;;31.38;28.50;;;20.70;99.90;;;;;;4923475;29;20081;-57
2022/08/16 01:19:00;;;;;;;30.83;28.20;;;20.70;99.90;;;;;;4929865;28;20409;-57
2022/08/16 01:21:38;;;;;;;30.75;27.92;;;20.70;99.90;;;;;;4924367;29;20495;-56
2022/08/16 01:24:35;;;;;;;31.38;28.08;;;20.70;99.90;;;;;;4924785;28;20051;-55
2022/08/16 01:27:30;;;;;;;29.98;27.48;;;20.60;99.90;;;;;;4925873;29;20055;-57
2022/08/16 01:30:08;;;;;;;29.88;27.33;;;20.50;99.90;;;;;;4978157;28;20671;-57
2022/08/16 01:32:37;;;;;;;33.75;30.60;;;20.50;99.90;;;;;;4965149;28;20055;-57
2022/08/16 01:35:29;;;;;;;29.73;27.05;;;20.50;99.90;;;;;;4962732;28;20062;-57
2022/08/16 01:37:56;;;;;;;31.17;28.52;;;20.40;99.90;;;;;;4962429;28;20063;-57
2022/08/16 01:40:27;;;;;;;31.08;28.45;;;20.40;99.90;;;;;;4975150;28;20112;-56
2022/08/16 01:42:55;;;;;;;30.80;28.10;;;20.40;99.90;;;;;;4965585;28;20101;-58
2022/08/16 01:45:21;;;;;;;29.80;27.13;;;20.40;99.90;;;;;;4965551;28;20137;-55
2022/08/16 01:47:49;;;;;;;31.77;28.83;;;20.40;99.90;;;;;;4965575;28;20060;-55
2022/08/16 01:50:15;;;;;;;31.05;28.25;;;20.30;99.90;;;;;;4980683;28;20096;-56
2022/08/16 01:52:43;;;;;;;30.88;28.15;;;20.30;99.90;;;;;;4952772;28;20051;-57
2022/08/16 01:55:11;;;;;;;29.17;26.45;;;20.20;99.90;;;;;;4959058;28;20089;-58
2022/08/16 01:57:37;;;;;;;29.80;26.77;;;20.20;99.90;;;;;;4968926;28;20604;-58
2022/08/16 02:00:10;;;;;;;29.67;26.88;;;20.20;99.90;;;;;;4967104;28;20174;-59
2022/08/16 02:02:36;;;;;;;29.27;26.70;;;20.20;99.90;;;;;;4968040;28;20059;-55
2022/08/16 02:05:03;;;;;;;29.60;26.88;;;20.10;99.90;;;;;;4962262;28;20082;-57
2022/08/16 02:07:31;;;;;;;29.13;26.52;;;20.10;99.90;;;;;;4931222;28;20171;-57
2022/08/16 02:09:58;;;;;;;27.67;25.15;;;20.10;99.90;;;;;;4907174;29;20047;-57
2022/08/16 02:12:25;;;;;;;28.17;25.80;;;20.10;99.90;;;;;;4926117;29;20152;-57
2022/08/16 02:14:51;;;;;;;29.35;26.95;;;20.00;99.90;;;;;;4942468;28;20051;-55
2022/08/16 02:17:17;;;;;;;28.23;25.75;;;20.00;99.90;;;;;;4942812;29;20051;-56
2022/08/16 02:19:45;;;;;;;28.13;25.60;;;20.00;99.90;;;;;;4925137;28;20134;-56
2022/08/16 02:22:15;;;;;;;28.05;25.58;;;20.00;99.90;;;;;;4924532;29;20414;-57
2022/08/16 02:24:41;;;;;;;29.13;26.38;;;19.90;99.90;;;;;;4942878;28;20043;-56
2022/08/16 02:27:09;;;;;;;28.90;26.25;;;19.90;99.90;;;;;;4930238;29;20079;-55
2022/08/16 02:29:37;;;;;;;28.60;25.88;;;19.90;99.90;;;;;;4931464;28;20849;-57
2022/08/16 02:32:03;;;;;;;28.95;26.45;;;19.90;99.90;;;;;;4923749;29;20094;-56
2022/08/16 02:34:30;;;;;;;30.58;27.75;;;19.80;99.90;;;;;;4937429;29;20062;-55
2022/08/16 02:36:56;;;;;;;31.73;28.60;;;19.80;99.90;;;;;;4942228;28;20043;-56
2022/08/16 02:39:22;;;;;;;30.48;27.48;;;19.80;99.90;;;;;;4941173;29;20625;-57
2022/08/16 02:41:49;;;;;;;33.10;30.00;;;19.70;99.90;;;;;;4942400;29;20063;-56
2022/08/16 02:44:16;;;;;;;30.85;27.92;;;19.70;99.90;;;;;;4942812;28;20059;-56
2022/08/16 02:46:43;;;;;;;32.33;29.38;;;19.60;99.90;;;;;;4922388;29;20047;-57
2022/08/16 02:49:09;;;;;;;32.40;29.67;;;19.60;99.90;;;;;;4923817;29;20071;-56
2022/08/16 02:51:36;;;;;;;32.75;29.75;;;19.50;99.90;;;;;;4923387;28;20063;-57
2022/08/16 02:54:04;;;;;;;32.05;29.10;;;19.60;99.90;;;;;;4924987;29;20056;-56
2022/08/16 02:56:30;;;;;;;33.35;30.55;;;19.50;99.90;;;;;;4922154;29;20517;-56
2022/08/16 02:58:56;;;;;;;31.23;28.50;;;19.40;99.90;;;;;;4928366;29;20766;-55
2022/08/16 03:01:26;;;;;;;32.78;29.92;;;19.40;99.90;;;;;;4929834;28;20052;-56
2022/08/16 03:03:54;;;;;;;32.45;29.75;;;19.40;99.90;;;;;;4922346;29;20062;-56
2022/08/16 03:06:23;;;;;;;32.53;29.77;;;19.30;99.90;;;;;;4922209;29;20062;-56
2022/08/16 03:08:50;;;;;;;31.83;28.95;;;19.30;99.90;;;;;;4923012;29;20055;-55
2022/08/16 03:11:18;;;;;;;30.58;27.85;;;19.30;99.90;;;;;;4934284;29;20052;-55
2022/08/16 03:13:51;;;;;;;32.42;29.60;;;19.20;99.90;;;;;;4933209;28;20211;-57
2022/08/16 03:16:19;;;;;;;33.13;29.65;;;19.20;99.90;;;;;;4941863;28;20058;-56
2022/08/16 03:18:45;;;;;;;31.25;28.45;;;19.20;99.90;;;;;;4932253;28;20051;-56
2022/08/16 03:21:11;;;;;;;32.60;29.60;;;19.20;99.90;;;;;;4923498;29;20054;-58
2022/08/16 03:23:37;;;;;;;32.30;29.48;;;19.10;99.90;;;;;;4923463;29;20414;-58
2022/08/16 03:26:04;;;;;;;34.20;31.17;;;19.10;99.90;;;;;;4926842;29;20542;-57
2022/08/16 03:28:31;;;;;;;33.67;30.70;;;19.10;99.90;;;;;;4935158;29;20086;-59
2022/08/16 03:30:58;;;;;;;33.97;31.15;;;19.00;99.90;;;;;;4938973;29;20418;-56
2022/08/16 03:33:25;;;;;;;33.00;29.90;;;19.00;99.90;;;;;;4942161;28;20051;-56
2022/08/16 03:35:51;;;;;;;33.47;30.45;;;18.90;99.90;;;;;;4942008;28;20051;-55
2022/08/16 03:38:22;;;;;;;33.25;29.98;;;18.90;99.90;;;;;;4929476;28;20051;-56
2022/08/16 03:40:48;;;;;;;34.22;30.92;;;18.90;99.90;;;;;;4922302;29;20060;-55
2022/08/16 03:43:14;;;;;;;32.53;29.33;;;18.80;99.90;;;;;;4924700;29;20056;-55
2022/08/16 03:45:40;;;;;;;31.48;28.65;;;18.80;99.90;;;;;;4926216;29;20047;-55
2022/08/16 03:48:08;;;;;;;33.40;30.50;;;18.80;99.90;;;;;;4932444;29;20055;-57
2022/08/16 03:50:35;;;;;;;31.77;28.98;;;18.70;99.90;;;;;;4945350;28;20063;-55
2022/08/16 03:53:02;;;;;;;32.42;29.60;;;18.70;99.90;;;;;;4945475;28;20510;-55
2022/08/16 03:55:28;;;;;;;32.65;29.65;;;18.70;99.90;;;;;;4945433;28;20047;-55
2022/08/16 03:57:54;;;;;;;33.30;30.23;;;18.70;99.90;;;;;;4943138;29;20070;-56
2022/08/16 04:00:26;;;;;;;34.00;31.15;;;18.70;99.90;;;;;;4927012;28;20075;-56
2022/08/16 04:02:55;;;;;;;31.73;28.90;;;18.60;99.90;;;;;;4926286;29;20525;-56
2022/08/16 04:05:21;;;;;;;32.20;29.50;;;18.60;99.90;;;;;;4941101;29;20063;-55
2022/08/16 04:07:47;;;;;;;32.03;29.20;;;18.60;99.90;;;;;;4945558;28;20055;-58
2022/08/16 04:10:15;;;;;;;33.35;30.25;;;18.60;99.90;;;;;;4945427;29;20047;-56
2022/08/16 04:12:44;;;;;;;31.30;28.52;;;18.60;99.90;;;;;;4943288;29;20616;-54
2022/08/16 04:15:12;;;;;;;33.08;30.15;;;18.60;99.90;;;;;;4936788;28;20055;-55
2022/08/16 04:17:38;;;;;;;33.30;30.40;;;18.60;99.90;;;;;;4928439;28;20055;-55
2022/08/16 04:20:07;;;;;;;32.25;29.55;;;18.50;99.90;;;;;;4931474;29;20077;-56
2022/08/16 04:22:34;;;;;;;32.33;29.35;;;18.50;99.90;;;;;;4944586;28;20375;-56
2022/08/16 04:25:00;;;;;;;34.10;30.88;;;18.50;99.90;;;;;;4945270;28;20406;-56
2022/08/16 04:27:26;;;;;;;34.13;30.98;;;18.50;99.90;;;;;;4944609;28;20460;-55
2022/08/16 04:29:53;;;;;;;33.10;29.98;;;18.50;99.90;;;;;;4929289;29;20058;-55
2022/08/16 04:32:20;;;;;;;34.72;31.10;;;18.40;99.90;;;;;;4942268;28;20124;-55
2022/08/16 04:34:46;;;;;;;33.17;30.23;;;18.40;99.90;;;;;;4945022;28;20051;-55
2022/08/16 04:37:12;;;;;;;32.97;29.90;;;18.40;99.90;;;;;;4945316;29;20070;-56
2022/08/16 04:39:38;;;;;;;33.15;29.98;;;18.50;99.90;;;;;;4936893;28;20891;-54
2022/08/16 04:42:05;;;;;;;35.33;32.08;;;18.50;99.90;;;;;;4935918;29;20142;-56
2022/08/16 04:44:31;;;;;;;32.25;29.35;;;18.50;99.90;;;;;;4926051;28;20154;-57
2022/08/16 04:46:57;;;;;;;33.00;30.20;;;18.50;99.90;;;;;;4925640;29;20463;-56
2022/08/16 04:49:24;;;;;;;35.72;32.42;;;18.50;99.90;;;;;;4924586;29;20510;-56
2022/08/16 04:51:51;;;;;;;35.47;32.10;;;18.50;99.90;;;;;;4929295;29;20074;-56
2022/08/16 04:54:17;;;;;;;33.95;30.95;;;18.60;99.90;;;;;;4935139;28;20051;-54
2022/08/16 04:56:57;;;;;;;33.60;30.50;;;18.70;99.90;;;;;;4927262;29;20054;-55
2022/08/16 04:59:23;;;;;;;32.97;29.83;;;18.70;99.90;;;;;;4927825;29;20134;-55
2022/08/16 05:01:55;;;;;;;31.23;28.45;;;18.80;99.90;;;;;;4926398;29;20135;-54
2022/08/16 05:04:22;;;;;;;31.35;28.65;;;18.90;99.90;;;;;;4942857;29;20047;-56
2022/08/16 05:06:49;;;;;;;32.45;29.45;;;18.90;99.90;;;;;;4943830;28;20043;-54
2022/08/16 05:09:15;;;;;;;31.33;28.27;;;19.00;99.90;;;;;;4944798;28;20584;-55
2022/08/16 05:11:41;;;;;;;32.75;29.67;;;19.10;99.90;;;;;;4944523;28;20066;-55
2022/08/16 05:14:07;;;;;;;30.98;28.10;;;19.20;99.90;;;;;;4944254;28;20047;-57
2022/08/16 05:16:34;;;;;;;32.78;29.63;;;19.30;99.90;;;;;;4944094;28;20410;-55
2022/08/16 05:19:03;;;;;;;29.52;26.73;;;19.40;99.90;;;;;;4943127;29;20058;-56
2022/08/16 05:21:34;;;;;;;30.15;27.50;;;20.00;99.90;;;;;;4943345;28;20743;-55
2022/08/16 05:24:00;;;;;;;28.88;26.17;;;20.60;99.90;;;;;;4942678;28;20059;-57
2022/08/16 05:26:28;;;;;;;30.20;27.42;;;21.30;99.90;;;;;;4936995;28;20044;-56
2022/08/16 05:28:56;;;;;;;29.27;26.75;;;21.90;99.90;;;;;;4933151;29;20051;-58
2022/08/16 05:31:24;;;;;;;29.45;26.70;;;22.40;99.90;;;;;;4926681;28;20083;-54
2022/08/16 05:33:50;;;;;;;27.80;25.50;;;22.80;99.90;;;;;;4923068;29;20780;-54
2022/08/16 05:36:16;;;;;;;28.48;26.10;;;23.10;99.90;;;;;;4922991;29;20063;-57
2022/08/16 05:38:42;;;;;;;30.55;27.60;;;23.50;99.90;;;;;;4922266;29;20048;-55
2022/08/16 05:41:08;;;;;;;28.08;25.65;;;23.70;99.90;;;;;;4922713;29;20077;-56
2022/08/16 05:43:34;;;;;;;28.33;25.92;;;24.10;99.90;;;;;;4906611;29;20062;-57
2022/08/16 05:46:00;;;;;;;30.35;27.50;;;24.30;99.90;;;;;;4937249;29;20051;-56
2022/08/16 05:48:26;;;;;;;28.35;25.85;;;24.60;99.90;;;;;;4943690;28;20129;-55
2022/08/16 05:50:52;;;;;;;28.85;26.35;;;25.00;99.90;;;;;;4943610;28;20047;-57
2022/08/16 05:53:18;;;;;;;27.58;24.88;;;25.20;99.90;;;;;;4943366;28;20043;-57
2022/08/16 05:55:45;;;;;;;27.70;25.40;;;25.40;99.90;;;;;;4928223;29;20450;-54
2022/08/16 05:58:11;;;;;;;27.83;25.63;;;25.70;99.90;;;;;;4930630;28;20517;-57
2022/08/16 06:00:37;;;;;;;26.90;24.40;;;25.80;99.90;;;;;;4924446;29;20580;-54
2022/08/16 06:03:03;;;;;;;28.88;26.33;;;26.20;99.90;;;;;;4928593;29;20056;-55
2022/08/16 06:05:29;;;;;;;26.00;23.85;;;26.40;99.90;;;;;;4922779;29;20052;-56
2022/08/16 06:07:55;;;;;;;28.02;25.70;;;26.70;99.90;;;;;;4924950;29;20094;-55
2022/08/16 06:10:21;;;;;;;28.55;26.17;;;26.90;99.90;;;;;;4922486;29;20139;-57
2022/08/16 06:12:47;;;;;;;28.20;25.65;;;27.30;99.60;;;;;;4937569;28;20082;-58
2022/08/16 06:15:24;;;;;;;27.70;25.50;;;27.40;99.90;;;;;;4941951;29;20106;-55
2022/08/16 06:17:51;;;;;;;29.08;26.45;;;27.50;98.40;;;;;;4934898;28;20090;-56
2022/08/16 06:20:23;;;;;;;28.92;26.25;;;27.80;98.50;;;;;;4923148;29;20059;-56
2022/08/16 06:22:54;;;;;;;27.52;25.33;;;27.90;97.90;;;;;;4924357;29;20139;-54
2022/08/16 06:25:22;;;;;;;28.85;26.10;;;28.30;97.50;;;;;;4923769;29;20174;-56
2022/08/16 06:27:48;;;;;;;29.50;26.85;;;28.50;97.40;;;;;;4927419;29;20058;-56
2022/08/16 06:30:15;;;;;;;28.73;26.25;;;28.70;97.20;;;;;;4924215;28;20423;-58
2022/08/16 06:32:41;;;;;;;29.48;26.70;;;28.90;96.80;;;;;;4922848;29;20151;-56
2022/08/16 06:35:08;;;;;;;29.80;27.10;;;29.00;96.20;;;;;;4922862;29;20463;-56
2022/08/16 06:37:35;;;;;;;27.58;25.20;;;29.00;96.00;;;;;;4925389;29;20529;-57
2022/08/16 06:40:02;;;;;;;28.48;26.08;;;29.30;96.30;;;;;;4925072;29;20083;-56
2022/08/16 06:42:28;;;;;;;29.65;27.30;;;29.70;96.30;;;;;;4928401;29;20369;-57
2022/08/16 06:44:54;;;;;;;27.92;25.83;;;29.90;96.00;;;;;;4931201;28;20680;-57
2022/08/16 06:47:20;;;;;;;29.05;26.50;;;30.20;95.70;;;;;;4923041;29;20055;-57
2022/08/16 06:49:46;;;;;;;27.75;25.45;;;30.40;95.80;;;;;;4924473;29;20055;-57
2022/08/16 06:52:12;;;;;;;28.52;26.13;;;30.70;95.30;;;;;;4943144;28;20051;-58
2022/08/16 06:54:38;;;;;;;28.27;25.95;;;30.60;95.00;;;;;;4943449;29;20089;-56
2022/08/16 06:57:05;;;;;;;27.27;24.98;;;30.80;95.10;;;;;;4925358;28;20109;-56
2022/08/16 06:59:31;;;;;;;28.17;25.77;;;31.10;94.60;;;;;;4928949;29;20085;-57
2022/08/16 07:02:08;;;;;;;28.73;26.15;;;31.20;94.60;;;;;;4925649;28;20048;-58
2022/08/16 07:04:41;;;;;;;;;;;31.40;93.70;;;;;;4908534;29;20060;-57
2022/08/16 07:07:07;;;;;;;26.60;24.45;;;30.50;94.00;;;;;;4922083;29;19933;-56
2022/08/16 07:09:33;;;;;;;28.98;26.67;;;30.00;95.30;;;;;;4923845;29;20051;-59
2022/08/16 07:11:59;;;;;;;27.33;25.15;;;29.60;95.70;;;;;;4940745;28;20051;-57
2022/08/16 07:14:25;;;;;;;27.10;24.83;;;29.40;95.70;;;;;;4942883;29;20528;-57
2022/08/16 07:16:51;;;;;;;28.00;25.58;;;29.10;95.30;;;;;;4945442;28;20067;-57
2022/08/16 07:19:17;;;;;;;28.48;25.98;;;29.00;95.80;;;;;;4937352;28;20066;-57
2022/08/16 07:21:43;;;;;;;28.50;26.10;;;28.10;96.80;;;;;;4939929;29;20050;-57
2022/08/16 07:24:10;;;;;;;27.80;25.42;;;27.90;97.10;;;;;;4947589;28;20517;-58
2022/08/16 07:26:41;;;;;;;29.40;26.83;;;27.50;97.30;;;;;;4931037;29;20059;-57
2022/08/16 07:29:07;;;;;;;31.30;28.77;;;27.20;97.70;;;;;;4941261;29;20056;-57
2022/08/16 07:31:33;;;;;;;31.98;29.10;;;27.00;97.80;;;;;;4949702;29;20047;-57
2022/08/16 07:33:58;;;;;;;31.75;28.85;;;26.60;98.30;;;;;;4948306;28;20092;-58
2022/08/16 07:36:25;;;;;;;31.33;28.83;;;26.50;98.90;;;;;;4929926;29;20878;-57
2022/08/16 07:38:51;;;;;;;30.45;27.67;;;26.50;99.30;;;;;;4929714;29;20059;-57
2022/08/16 07:41:18;;;;;;;30.73;28.13;;;26.60;99.20;;;;;;4929291;29;20055;-58
2022/08/16 07:43:45;;;;;;;32.83;29.92;;;26.70;99.30;;;;;;4928935;29;20199;-57
2022/08/16 07:46:11;;;;;;;33.70;30.73;;;26.60;99.80;;;;;;4930222;29;20052;-58
2022/08/16 07:48:37;;;;;;;33.63;30.73;;;26.40;99.70;;;;;;4928766;29;20055;-57
2022/08/16 07:51:03;;;;;;;34.47;31.58;;;26.20;99.90;;;;;;4928020;29;20055;-58
2022/08/16 07:53:33;;;;;;;34.65;31.80;;;26.20;99.90;;;;;;4929989;29;20047;-57
2022/08/16 07:56:00;;;;;;;36.45;33.25;;;26.40;99.90;;;;;;4931057;29;20047;-58
2022/08/16 07:58:28;;;;;;;36.45;32.78;;;26.60;99.90;;;;;;4930783;29;20074;-58
2022/08/16 08:00:54;;;;;;;36.17;33.00;;;26.60;99.90;;;;;;4929440;29;20064;-58
2022/08/16 08:03:21;;;;;;;33.20;30.50;;;26.80;99.90;;;;;;4929188;29;20043;-58
2022/08/16 08:05:47;;;;;;;33.53;30.80;;;26.90;99.90;;;;;;4935956;29;20051;-59
2022/08/16 08:08:13;;;;;;;34.25;31.33;;;27.10;99.90;;;;;;4930584;29;20149;-58
2022/08/16 08:10:39;;;;;;;34.17;31.08;;;27.10;99.90;;;;;;4929677;29;20503;-59
2022/08/16 08:13:07;;;;;;;35.47;32.45;;;27.20;99.90;;;;;;4946554;28;20146;-58
2022/08/16 08:15:33;;;;;;;31.20;28.25;;;27.40;99.90;;;;;;4947427;28;20074;-58
2022/08/16 08:18:01;;;;;;;34.08;31.02;;;27.60;99.90;;;;;;4944794;28;20055;-58
2022/08/16 08:20:27;;;;;;;32.13;29.05;;;27.60;99.80;;;;;;4929888;29;20059;-58
2022/08/16 08:22:55;;;;;;;30.15;27.58;;;27.80;99.90;;;;;;4927905;29;20055;-58
2022/08/16 08:25:22;;;;;;;32.65;29.90;;;27.90;99.80;;;;;;4937394;29;20086;-59
2022/08/16 08:27:49;;;;;;;30.17;27.63;;;27.90;99.60;;;;;;4930518;28;20059;-58
2022/08/16 08:30:15;;;;;;;31.52;28.80;;;27.90;99.50;;;;;;4945332;28;20082;-58
2022/08/16 08:32:41;;;;;;;30.27;27.55;;;28.00;99.30;;;;;;4941064;29;20083;-58
2022/08/16 08:35:08;;;;;;;30.65;28.02;;;28.00;99.50;;;;;;4931096;29;20840;-58
2022/08/16 08:37:35;;;;;;;31.38;28.55;;;28.10;99.60;;;;;;4925250;28;20067;-58
2022/08/16 08:40:09;;;;;;;29.17;26.23;;;27.90;99.00;;;;;;4933414;29;20047;-58
2022/08/16 08:42:35;;;;;;;30.65;27.85;;;28.00;99.00;;;;;;4931637;28;20071;-59
2022/08/16 08:45:02;;;;;;;31.58;28.70;;;27.90;99.10;;;;;;4932884;28;20059;-58
2022/08/16 08:47:29;;;;;;;30.23;27.75;;;27.90;99.30;;;;;;4941362;29;20582;-58
2022/08/16 08:49:55;;;;;;;28.48;25.85;;;28.10;99.10;;;;;;4943998;29;20058;-58
2022/08/16 08:52:23;;;;;;;26.15;23.80;;;28.10;98.50;;;;;;4943917;29;20465;-58
2022/08/16 08:54:49;;;;;;;26.75;24.23;;;28.20;98.50;;;;;;4926881;29;20054;-59
2022/08/16 08:57:17;;;;;;;27.10;24.67;;;28.20;98.30;;;;;;4935666;29;20059;-58
2022/08/16 08:59:44;;;;;;;28.88;26.15;;;28.20;98.50;;;;;;4937721;29;20047;-58
2022/08/16 09:02:13;;;;;;;27.35;24.48;;;28.10;98.40;;;;;;4923927;29;20090;-58
2022/08/16 09:04:55;;;;;;;26.63;24.17;;;28.30;98.40;;;;;;4928599;29;20102;-59
2022/08/16 09:07:29;;;;;;;23.38;21.17;;;28.40;98.10;;;;;;4941640;29;20058;-59
2022/08/16 09:09:56;;;;;;;20.08;18.08;;;28.50;98.20;;;;;;4944447;29;20055;-59
2022/08/16 09:12:23;;;;;;;20.55;18.45;;;28.60;97.80;;;;;;4942405;28;20051;-59
2022/08/16 09:14:49;;;;;;;21.05;19.00;;;28.60;97.50;;;;;;4940617;28;20508;-59
2022/08/16 09:17:15;;;;;;;18.50;16.58;;;28.60;96.80;;;;;;4938471;28;20047;-58
2022/08/16 09:19:41;;;;;;;20.95;17.67;;;28.60;96.80;;;;;;4943914;29;20059;-59
2022/08/16 09:22:08;;;;;;;18.60;16.70;;;28.60;97.30;;;;;;4944476;28;20051;-59
2022/08/16 09:24:35;;;;;;;19.17;17.17;;;28.60;97.10;;;;;;4944095;28;20055;-58
2022/08/16 09:27:01;;;;;;;17.73;15.32;;;28.70;97.10;;;;;;4942414;29;20066;-59
2022/08/16 09:29:30;;;;;;;17.23;15.18;;;28.60;97.40;;;;;;4943528;28;20062;-59
2022/08/16 09:31:57;;;;;;;16.25;14.57;;;28.70;96.60;;;;;;4944492;28;20059;-59
2022/08/16 09:34:23;;;;;;;17.90;16.00;;;28.70;96.50;;;;;;4944160;28;20043;-58
2022/08/16 09:36:49;;;;;;;18.83;15.05;;;28.70;95.80;;;;;;4943762;28;20054;-59
2022/08/16 09:39:17;;;;;;;17.60;15.95;;;28.80;96.40;;;;;;4942178;28;20066;-59
2022/08/16 09:41:44;;;;;;;15.70;14.13;;;28.70;96.20;;;;;;4943888;28;20146;-59
2022/08/16 09:44:10;;;;;;;16.08;14.50;;;28.60;95.90;;;;;;4944157;28;20055;-59
2022/08/16 09:46:35;;;;;;;17.35;15.75;;;28.70;96.50;;;;;;4914887;29;20063;-59
2022/08/16 09:49:01;;;;;;;17.33;15.75;;;28.70;96.00;;;;;;4937065;28;20096;-59
2022/08/16 09:51:27;;;;;;;18.05;16.30;;;28.70;96.20;;;;;;4944098;29;20047;-59
2022/08/16 09:53:54;;;;;;;18.65;15.27;;;28.80;96.50;;;;;;4926866;28;20059;-59
2022/08/16 09:56:29;;;;;;;15.20;13.77;;;28.90;96.20;;;;;;4924828;29;20599;-59
2022/08/16 09:58:57;;;;;;;15.90;14.32;;;28.90;96.20;;;;;;4932515;29;20601;-59
2022/08/16 10:01:26;;;;;;;15.07;13.73;;;29.00;96.40;;;;;;4931237;29;20064;-59
2022/08/16 10:03:53;;;;;;;14.88;13.43;;;29.10;96.30;;;;;;4923036;29;20133;-59
2022/08/16 10:06:20;;;;;;;13.10;11.38;;;29.20;96.10;;;;;;4907140;29;20091;-59
2022/08/16 10:08:48;;;;;;;12.85;11.65;;;29.30;95.20;;;;;;4929343;28;20055;-59
2022/08/16 10:13:59;;;;;;;11.60;10.68;;;29.20;95.10;;;;;;4942200;28;20090;-59
2022/08/16 10:16:25;;;;;;;13.15;11.13;;;29.20;94.10;;;;;;4943423;28;20043;-60
2022/08/16 10:18:52;;;;;;;12.60;10.90;;;29.10;94.60;;;;;;4933847;28;20083;-59
2022/08/16 10:21:17;;;;;;;12.27;10.73;;;29.20;94.80;;;;;;4924676;29;20050;-59
2022/08/16 10:23:44;;;;;;;13.48;12.02;;;29.30;95.20;;;;;;4907487;29;20052;-59
2022/08/16 10:26:11;;;;;;;17.55;11.13;;;29.40;95.00;;;;;;4923538;29;20147;-60
2022/08/16 10:28:37;;;;;;;11.43;10.23;;;29.50;94.90;;;;;;4924831;29;20476;-59
2022/08/16 10:31:05;;;;;;;11.18;10.02;;;29.60;94.30;;;;;;4929892;28;20747;-60
2022/08/16 10:33:33;;;;;;;10.68;9.35;;;29.40;94.10;;;;;;4932803;28;20175;-60
2022/08/16 10:36:08;;;;;;;11.20;8.85;;;29.50;94.00;;;;;;4937996;29;20232;-59
2022/08/16 10:38:37;;;;;;;13.35;10.27;;;29.60;93.80;;;;;;4942809;28;20059;-59
2022/08/16 10:41:05;;;;;;;9.85;8.85;;;29.40;94.40;;;;;;4937943;29;20039;-59
2022/08/16 10:43:31;;;;;;;13.90;10.45;;;29.50;94.60;;;;;;4938192;29;20051;-59
2022/08/16 10:45:57;;;;;;;13.20;9.82;;;29.60;94.00;;;;;;4943133;28;20057;-58
2022/08/16 10:48:30;;;;;;;11.95;10.85;;;29.80;94.40;;;;;;4943438;28;20051;-59
2022/08/16 10:50:57;;;;;;;13.27;10.70;;;29.60;94.50;;;;;;4934019;29;20067;-60
2022/08/16 10:53:26;;;;;;;12.73;11.43;;;29.70;94.50;;;;;;4924708;29;20094;-59
2022/08/16 10:55:52;;;;;;;12.48;11.23;;;29.80;94.70;;;;;;4926929;29;20064;-59
2022/08/16 10:58:19;;;;;;;11.82;10.63;;;29.70;94.50;;;;;;4928607;29;20075;-59
2022/08/16 11:00:46;;;;;;;13.15;11.77;;;29.80;94.50;;;;;;4939193;29;20070;-59
2022/08/16 11:03:13;;;;;;;11.93;10.80;;;29.80;93.90;;;;;;4928086;28;20058;-59
2022/08/16 11:05:42;;;;;;;14.25;10.88;;;29.90;93.90;;;;;;4931330;29;20054;-59
2022/08/16 11:08:10;;;;;;;14.88;11.10;;;29.80;93.50;;;;;;4942578;28;20418;-59
2022/08/16 11:10:39;;;;;;;11.25;10.25;;;29.70;94.10;;;;;;4921926;29;20059;-59
2022/08/16 11:13:06;;;;;;;11.30;9.73;;;29.70;94.30;;;;;;4934587;29;20070;-59
2022/08/16 11:15:34;;;;;;;13.15;9.35;;;29.80;92.80;;;;;;4940943;29;20054;-59
2022/08/16 11:18:00;;;;;;;11.27;8.57;;;29.70;92.10;;;;;;4938833;28;20056;-59
2022/08/16 11:20:27;;;;;;;10.65;8.88;;;29.70;92.30;;;;;;4923346;29;20133;-59
2022/08/16 11:22:53;;;;;;;10.82;8.32;;;29.70;92.10;;;;;;4940669;29;20047;-59
2022/08/16 11:25:24;;;;;;;15.80;11.63;;;29.90;92.30;;;;;;4929416;28;20055;-59
2022/08/16 11:27:51;;;;;;;10.70;9.70;;;29.70;92.30;;;;;;4921503;29;20147;-59
2022/08/16 11:30:17;;;;;;;11.75;9.73;;;29.70;91.80;;;;;;4923628;29;20808;-59
2022/08/16 11:32:43;;;;;;;10.10;9.07;;;29.70;92.00;;;;;;4923623;28;20063;-59
2022/08/16 11:35:15;;;;;;;13.63;12.25;;;29.70;92.30;;;;;;4922910;29;20566;-60
2022/08/16 11:37:45;;;;;;;12.50;11.38;;;29.60;92.50;;;;;;4922356;29;20060;-59
2022/08/16 11:40:12;;;;;;;13.00;11.77;;;29.60;93.00;;;;;;4934765;29;20563;-59
2022/08/16 11:42:38;;;;;;;13.73;12.27;;;29.60;92.80;;;;;;4942653;28;20043;-58
2022/08/16 11:45:05;;;;;;;14.15;12.85;;;29.50;92.40;;;;;;4936501;28;20098;-59
2022/08/16 11:47:31;;;;;;;13.45;12.13;;;29.30;93.20;;;;;;4941070;29;20074;-59
2022/08/16 11:49:57;;;;;;;13.77;12.48;;;29.20;93.10;;;;;;4942311;29;20089;-59
2022/08/16 11:52:23;;;;;;;17.90;16.13;;;29.30;93.80;;;;;;4921137;29;20529;-59
2022/08/16 11:54:50;;;;;;;15.02;13.18;;;29.30;94.20;;;;;;4933340;29;20047;-59
2022/08/16 11:57:17;;;;;;;13.68;12.27;;;29.40;94.30;;;;;;4935724;28;20055;-60
2022/08/16 11:59:42;;;;;;;17.90;16.00;;;29.50;93.20;;;;;;4922277;29;20051;-60
2022/08/16 12:02:09;;;;;;;19.13;14.57;;;29.60;94.30;;;;;;4922412;29;20075;-60
2022/08/16 12:04:35;;;;;;;17.52;13.13;;;29.50;94.30;;;;;;4936346;29;20070;-60
2022/08/16 12:07:03;;;;;;;15.27;13.57;;;29.70;94.00;;;;;;4926636;29;20051;-62
2022/08/16 12:09:31;;;;;;;19.58;17.67;;;29.60;94.20;;;;;;4926198;29;20059;-60
2022/08/16 12:11:58;;;;;;;19.25;17.48;;;29.70;93.70;;;;;;4930754;29;20063;-59
2022/08/16 12:14:25;;;;;;;19.20;17.52;;;29.70;94.80;;;;;;4944387;28;20051;-60
2022/08/16 12:16:56;;;;;;;18.70;17.10;;;29.80;94.40;;;;;;4939820;28;20077;-59
2022/08/16 12:19:23;;;;;;;20.83;18.77;;;29.90;93.90;;;;;;4935495;28;20081;-59
2022/08/16 12:21:49;;;;;;;20.13;14.88;;;29.90;93.80;;;;;;4924978;29;20509;-59
2022/08/16 12:24:15;;;;;;;17.13;15.48;;;29.70;93.80;;;;;;4924518;29;20059;-59
2022/08/16 12:26:42;;;;;;;16.45;14.55;;;29.70;93.00;;;;;;4940030;28;20593;-59
2022/08/16 12:29:08;;;;;;;18.63;14.48;;;29.70;92.70;;;;;;4940749;28;20082;-60
2022/08/16 12:31:35;;;;;;;11.20;10.10;;;29.70;93.80;;;;;;4926596;28;20784;-59
2022/08/16 12:34:01;;;;;;;12.70;11.38;;;29.60;92.40;;;;;;4925443;29;20404;-61